Pagrindinis puslapis
METAR-TAF:

METAR-TAF

Oro uostai :

Rosh Pinna, Izraelis

platuma: 32-58-48N, ilguma: 035-34-12E, Aukštis: 281 m

Dabartinis oras

Ataskaita buvo paskelbta 31 minutes, ne 12:50 UTC
Vėjas 2 kt nuo kintamojo kryptimis
Temperatūra 16°C
Drėgmė 45%
Slėgis 1016 hPa
Matomumas 10 km arba daugiau
nėra debesų žemiau 1500 m ir nėra kamuolinių lietaus debesų

METAR: LLIB 151250Z VRB02KT CAVOK 16/04 Q1016 RMK FEW080

Laikas: 15:21 (13:21 UTC)

Prognozė

Ataskaita buvo paskelbta 2 valandos ir 16 minutes, ne 11:05 UTC
Prognozė galioja nuo 15 metu 12 UTC su 16 metu 12 UTC
Vėjas 10 kt iš Šiaurės Vakarų
Matomumas 10 km arba daugiau
nėra debesų žemiau 1500 m ir nėra kamuolinių lietaus debesų
Tapsmas
nuo 15 metu 16 UTC su 15 metu 18 UTC
Vėjas 4 kt nuo kintamojo kryptimis
Tapsmas
nuo 16 metu 04 UTC su 16 metu 06 UTC
Vėjas 6 kt iš Pietryčių

TAF: LLIB 151105Z 1512/1612 32010KT CAVOK BECMG 1516/1518 VRB04KT BECMG 1604/1606 14006KT TX16/1512Z TN06/1604Z

Orai ataskaitas ir orų prognozės (METAR, TAF).

turimą stotys yra geltonos ir raudonos taškus žemėlapyje.

Perkelti pele per norėdami pamatyti stoties vardą.

Tada spustelėkite, norėdami matyti oro stebėjimo ir prognozės.

Norėdami pakeisti žemėlapį: spustelėkite ant žalios mygtukų su juodo kryžiaus žemyn,; žalią mygtuką su brūkšneliu, jei norite nutolinti; arba žalių rodyklių gretimoms žemėlapius.


METAR-TAF: